Home / US / Louisiana / Winnsboro

Winnsboro, LA Weather

Current Report for Mon Apr 23 2018

As of 1:53 PM CDT MON APR 23 2018

64°F 18°cWinnsboro weather conditions : Overcast

Overcast

Barometer: 29.98 inHg. falling

Humidity: 70%

Wind: SW. 5mph

Wind Gust: 7mph

Wind Chill: 64°F

Dew Point: 54°F / 12°C steady

Visibility: 10.00mi.

Sunrise: 6:28 AM

Sunset: 7:41 PM

Moon Phase: Waxing Gibbous Moon

Daily and Hourly Summary

Loading Winnsboro LA Summary and Hourly data for today, tonight and tomorrow...
Forecast for Winnsboro, LA:
(Forecast based on TAF for )
0700 PM CDT SUN APR 22 2018
  
MORNING AFTERNOON EVENING OVERNIGHT
Partly Cloudy Partly Cloudy Partly Cloudy Partly Cloudy
Partly
Cloudy
Partly
Cloudy
Partly
Cloudy
Partly
Cloudy
Original Encoded TAF:
Dated: 0700 PM CDT SUN APR 22 2018
2018/04/23 19:09
TAF 
      AMD KMLU 231907Z 2319/2418 26006KT P6SM SCT025 BKN035 
      TEMPO 2319/2322 BKN025 
     FM240900 33005KT P6SM SCT030

Temperatures Today (View More Charts)

Winnsboro, LA updates by locals

Write your own report, forecast, or traffic update:

Please note by clicking on "Post" you acknowledge that you have read the Terms of Service and the report and/or forecast you are posting is in compliance with such terms. Be respectful. An inappropriate post will be removed by a moderator. If you are not finding the information you want, please be sure to note the navigation tabs just above the breadcrumbs, which are links to other data relating to this city.